sensor_id;sensor_type;location;lat;lon;timestamp;temperature;humidity
3308;DHT22;1666;48.898;9.182;2022-12-18T00:00:50;-7.30;15.40
3308;DHT22;1666;48.898;9.182;2022-12-18T00:03:20;-7.20;15.20
3308;DHT22;1666;48.898;9.182;2022-12-18T00:05:51;-7.30;15.20
3308;DHT22;1666;48.898;9.182;2022-12-18T00:08:21;-7.30;15.00
3308;DHT22;1666;48.898;9.182;2022-12-18T00:10:51;-7.40;13.80
3308;DHT22;1666;48.898;9.182;2022-12-18T00:13:28;-7.50;14.00
3308;DHT22;1666;48.898;9.182;2022-12-18T00:16:01;-7.30;15.00
3308;DHT22;1666;48.898;9.182;2022-12-18T00:18:32;-7.30;14.10
3308;DHT22;1666;48.898;9.182;2022-12-18T00:21:04;-7.30;14.30
3308;DHT22;1666;48.898;9.182;2022-12-18T00:23:36;-7.30;14.90
3308;DHT22;1666;48.898;9.182;2022-12-18T00:26:10;-7.40;14.80
3308;DHT22;1666;48.898;9.182;2022-12-18T00:28:43;-7.40;14.60
3308;DHT22;1666;48.898;9.182;2022-12-18T00:31:15;-7.40;14.70
3308;DHT22;1666;48.898;9.182;2022-12-18T00:33:46;-7.40;14.90
3308;DHT22;1666;48.898;9.182;2022-12-18T00:36:23;-7.40;14.80
3308;DHT22;1666;48.898;9.182;2022-12-18T00:38:54;-7.50;13.80
3308;DHT22;1666;48.898;9.182;2022-12-18T00:41:25;-7.60;14.20
3308;DHT22;1666;48.898;9.182;2022-12-18T00:44:12;-7.60;14.80
3308;DHT22;1666;48.898;9.182;2022-12-18T00:46:42;-7.60;15.00
3308;DHT22;1666;48.898;9.182;2022-12-18T00:49:12;-7.60;15.10
3308;DHT22;1666;48.898;9.182;2022-12-18T00:51:42;-7.60;14.90
3308;DHT22;1666;48.898;9.182;2022-12-18T00:54:12;-7.60;15.00
3308;DHT22;1666;48.898;9.182;2022-12-18T00:56:42;-7.60;14.90
3308;DHT22;1666;48.898;9.182;2022-12-18T00:59:19;-7.70;14.50
3308;DHT22;1666;48.898;9.182;2022-12-18T01:01:48;-7.60;15.00
3308;DHT22;1666;48.898;9.182;2022-12-18T01:04:18;-7.50;15.10
3308;DHT22;1666;48.898;9.182;2022-12-18T01:06:48;-7.50;14.40
3308;DHT22;1666;48.898;9.182;2022-12-18T01:09:18;-7.60;14.60
3308;DHT22;1666;48.898;9.182;2022-12-18T01:11:48;-7.60;14.90
3308;DHT22;1666;48.898;9.182;2022-12-18T01:14:20;-7.60;15.00
3308;DHT22;1666;48.898;9.182;2022-12-18T01:16:50;-7.70;14.60
3308;DHT22;1666;48.898;9.182;2022-12-18T01:19:20;-7.70;14.90
3308;DHT22;1666;48.898;9.182;2022-12-18T01:21:50;-7.70;15.10
3308;DHT22;1666;48.898;9.182;2022-12-18T01:24:20;-7.60;15.00
3308;DHT22;1666;48.898;9.182;2022-12-18T01:26:50;-7.60;15.00
3308;DHT22;1666;48.898;9.182;2022-12-18T01:29:23;-7.70;14.30
3308;DHT22;1666;48.898;9.182;2022-12-18T01:31:55;-7.80;14.00
3308;DHT22;1666;48.898;9.182;2022-12-18T01:34:25;-7.80;14.00
3308;DHT22;1666;48.898;9.182;2022-12-18T01:36:55;-7.80;13.40
3308;DHT22;1666;48.898;9.182;2022-12-18T01:39:25;-7.80;14.10
3308;DHT22;1666;48.898;9.182;2022-12-18T01:41:55;-7.90;13.00
3308;DHT22;1666;48.898;9.182;2022-12-18T01:44:57;-7.80;13.60
3308;DHT22;1666;48.898;9.182;2022-12-18T01:47:30;-7.90;13.30
3308;DHT22;1666;48.898;9.182;2022-12-18T01:50:06;-7.80;13.80
3308;DHT22;1666;48.898;9.182;2022-12-18T01:52:37;-7.70;14.30
3308;DHT22;1666;48.898;9.182;2022-12-18T01:55:12;-7.70;14.00
3308;DHT22;1666;48.898;9.182;2022-12-18T01:57:43;-7.80;13.30
3308;DHT22;1666;48.898;9.182;2022-12-18T02:00:18;-7.80;13.40
3308;DHT22;1666;48.898;9.182;2022-12-18T02:02:49;-7.80;13.20
3308;DHT22;1666;48.898;9.182;2022-12-18T02:05:26;-7.80;13.10
3308;DHT22;1666;48.898;9.182;2022-12-18T02:08:06;-7.70;14.20
3308;DHT22;1666;48.898;9.182;2022-12-18T02:10:44;-7.70;13.80
3308;DHT22;1666;48.898;9.182;2022-12-18T02:13:20;-7.80;13.10
3308;DHT22;1666;48.898;9.182;2022-12-18T02:16:01;-7.80;13.80
3308;DHT22;1666;48.898;9.182;2022-12-18T02:18:34;-7.70;13.90
3308;DHT22;1666;48.898;9.182;2022-12-18T02:21:12;-7.70;14.00
3308;DHT22;1666;48.898;9.182;2022-12-18T02:23:52;-7.60;14.10
3308;DHT22;1666;48.898;9.182;2022-12-18T02:26:31;-7.70;13.50
3308;DHT22;1666;48.898;9.182;2022-12-18T02:29:08;-7.70;13.30
3308;DHT22;1666;48.898;9.182;2022-12-18T02:31:44;-7.80;13.30
3308;DHT22;1666;48.898;9.182;2022-12-18T02:34:16;-7.80;13.40
3308;DHT22;1666;48.898;9.182;2022-12-18T02:36:48;-7.80;13.50
3308;DHT22;1666;48.898;9.182;2022-12-18T02:39:21;-7.80;13.60
3308;DHT22;1666;48.898;9.182;2022-12-18T02:41:54;-7.70;13.90
3308;DHT22;1666;48.898;9.182;2022-12-18T02:44:24;-7.70;13.80
3308;DHT22;1666;48.898;9.182;2022-12-18T02:46:54;-7.60;13.90
3308;DHT22;1666;48.898;9.182;2022-12-18T02:49:31;-7.60;13.50
3308;DHT22;1666;48.898;9.182;2022-12-18T02:52:10;-7.70;13.50
3308;DHT22;1666;48.898;9.182;2022-12-18T02:54:56;-7.70;13.30
3308;DHT22;1666;48.898;9.182;2022-12-18T02:57:34;-7.60;13.40
3308;DHT22;1666;48.898;9.182;2022-12-18T03:00:10;-7.70;13.30
3308;DHT22;1666;48.898;9.182;2022-12-18T03:02:45;-7.60;13.70
3308;DHT22;1666;48.898;9.182;2022-12-18T03:05:20;-7.60;13.20
3308;DHT22;1666;48.898;9.182;2022-12-18T03:07:57;-7.70;13.10
3308;DHT22;1666;48.898;9.182;2022-12-18T03:10:31;-7.70;13.30
3308;DHT22;1666;48.898;9.182;2022-12-18T03:13:07;-7.60;13.60
3308;DHT22;1666;48.898;9.182;2022-12-18T03:15:44;-7.60;13.50
3308;DHT22;1666;48.898;9.182;2022-12-18T03:18:18;-7.60;13.80
3308;DHT22;1666;48.898;9.182;2022-12-18T03:20:50;-7.50;13.80
3308;DHT22;1666;48.898;9.182;2022-12-18T03:23:22;-7.60;13.70
3308;DHT22;1666;48.898;9.182;2022-12-18T03:25:57;-7.50;14.00
3308;DHT22;1666;48.898;9.182;2022-12-18T03:28:38;-7.60;13.50
3308;DHT22;1666;48.898;9.182;2022-12-18T03:31:10;-7.50;13.90
3308;DHT22;1666;48.898;9.182;2022-12-18T03:33:46;-7.60;14.00
3308;DHT22;1666;48.898;9.182;2022-12-18T03:36:17;-7.60;13.40
3308;DHT22;1666;48.898;9.182;2022-12-18T03:38:47;-7.60;13.80
3308;DHT22;1666;48.898;9.182;2022-12-18T03:41:22;-7.50;13.30
3308;DHT22;1666;48.898;9.182;2022-12-18T03:44:02;-7.60;13.10
3308;DHT22;1666;48.898;9.182;2022-12-18T03:46:41;-7.60;13.40
3308;DHT22;1666;48.898;9.182;2022-12-18T03:49:18;-7.50;13.50
3308;DHT22;1666;48.898;9.182;2022-12-18T03:52:01;-7.50;12.70
3308;DHT22;1666;48.898;9.182;2022-12-18T03:54:33;-7.50;12.00
3308;DHT22;1666;48.898;9.182;2022-12-18T03:57:07;-7.50;11.60
3308;DHT22;1666;48.898;9.182;2022-12-18T03:59:43;-7.50;12.10
3308;DHT22;1666;48.898;9.182;2022-12-18T04:02:15;-7.50;11.60
3308;DHT22;1666;48.898;9.182;2022-12-18T04:04:47;-7.60;11.60
3308;DHT22;1666;48.898;9.182;2022-12-18T04:07:17;-7.60;12.10
3308;DHT22;1666;48.898;9.182;2022-12-18T04:09:49;-7.70;11.50
3308;DHT22;1666;48.898;9.182;2022-12-18T04:12:23;-7.60;11.60
3308;DHT22;1666;48.898;9.182;2022-12-18T04:14:56;-7.70;11.50
3308;DHT22;1666;48.898;9.182;2022-12-18T04:17:25;-7.80;11.50
3308;DHT22;1666;48.898;9.182;2022-12-18T04:19:55;-7.80;11.50
3308;DHT22;1666;48.898;9.182;2022-12-18T04:22:25;-7.80;11.90
3308;DHT22;1666;48.898;9.182;2022-12-18T04:24:55;-7.80;11.80
3308;DHT22;1666;48.898;9.182;2022-12-18T04:27:25;-7.80;11.60
3308;DHT22;1666;48.898;9.182;2022-12-18T04:29:57;-7.80;11.90
3308;DHT22;1666;48.898;9.182;2022-12-18T04:32:28;-7.80;11.50
3308;DHT22;1666;48.898;9.182;2022-12-18T04:34:58;-7.90;11.40
3308;DHT22;1666;48.898;9.182;2022-12-18T04:37:27;-7.90;11.80
3308;DHT22;1666;48.898;9.182;2022-12-18T04:39:57;-7.80;12.00
3308;DHT22;1666;48.898;9.182;2022-12-18T04:42:27;-7.90;11.70
3308;DHT22;1666;48.898;9.182;2022-12-18T04:45:00;-7.90;12.00
3308;DHT22;1666;48.898;9.182;2022-12-18T04:47:30;-7.80;12.10
3308;DHT22;1666;48.898;9.182;2022-12-18T04:50:00;-7.80;12.10
3308;DHT22;1666;48.898;9.182;2022-12-18T04:52:30;-7.70;11.50
3308;DHT22;1666;48.898;9.182;2022-12-18T04:55:00;-7.80;11.50
3308;DHT22;1666;48.898;9.182;2022-12-18T04:57:30;-7.80;11.50
3308;DHT22;1666;48.898;9.182;2022-12-18T05:00:03;-7.80;11.50
3308;DHT22;1666;48.898;9.182;2022-12-18T05:02:34;-7.80;11.50
3308;DHT22;1666;48.898;9.182;2022-12-18T05:05:05;-7.80;11.30
3308;DHT22;1666;48.898;9.182;2022-12-18T05:07:38;-7.90;10.60
3308;DHT22;1666;48.898;9.182;2022-12-18T05:10:09;-8.00;10.40
3308;DHT22;1666;48.898;9.182;2022-12-18T05:12:39;-8.00;10.70
3308;DHT22;1666;48.898;9.182;2022-12-18T05:15:31;-8.00;11.30
3308;DHT22;1666;48.898;9.182;2022-12-18T05:18:02;-8.10;10.80
3308;DHT22;1666;48.898;9.182;2022-12-18T05:20:32;-8.20;11.00
3308;DHT22;1666;48.898;9.182;2022-12-18T05:23:02;-8.10;11.20
3308;DHT22;1666;48.898;9.182;2022-12-18T05:25:31;-8.20;10.20
3308;DHT22;1666;48.898;9.182;2022-12-18T05:28:01;-8.20;11.30
3308;DHT22;1666;48.898;9.182;2022-12-18T05:30:34;-8.20;11.10
3308;DHT22;1666;48.898;9.182;2022-12-18T05:33:04;-8.30;10.30
3308;DHT22;1666;48.898;9.182;2022-12-18T05:35:34;-8.30;11.20
3308;DHT22;1666;48.898;9.182;2022-12-18T05:38:04;-8.40;10.80
3308;DHT22;1666;48.898;9.182;2022-12-18T05:40:33;-8.40;11.10
3308;DHT22;1666;48.898;9.182;2022-12-18T05:43:03;-8.40;11.10
3308;DHT22;1666;48.898;9.182;2022-12-18T05:45:36;-8.40;11.10
3308;DHT22;1666;48.898;9.182;2022-12-18T05:48:07;-8.40;11.10
3308;DHT22;1666;48.898;9.182;2022-12-18T05:50:38;-8.40;11.00
3308;DHT22;1666;48.898;9.182;2022-12-18T05:53:08;-8.50;10.70
3308;DHT22;1666;48.898;9.182;2022-12-18T05:55:39;-8.40;11.10
3308;DHT22;1666;48.898;9.182;2022-12-18T05:58:11;-8.50;11.00
3308;DHT22;1666;48.898;9.182;2022-12-18T06:00:45;-8.40;11.10
3308;DHT22;1666;48.898;9.182;2022-12-18T06:03:15;-8.40;11.10
3308;DHT22;1666;48.898;9.182;2022-12-18T06:05:45;-8.30;11.10
3308;DHT22;1666;48.898;9.182;2022-12-18T06:08:15;-8.40;10.30
3308;DHT22;1666;48.898;9.182;2022-12-18T06:10:50;-8.40;11.00
3308;DHT22;1666;48.898;9.182;2022-12-18T06:13:21;-8.50;10.20
3308;DHT22;1666;48.898;9.182;2022-12-18T06:15:54;-8.30;10.80
3308;DHT22;1666;48.898;9.182;2022-12-18T06:18:23;-8.40;10.10
3308;DHT22;1666;48.898;9.182;2022-12-18T06:20:56;-8.50;9.80
3308;DHT22;1666;48.898;9.182;2022-12-18T06:23:27;-8.60;9.40
3308;DHT22;1666;48.898;9.182;2022-12-18T06:25:57;-8.60;9.70
3308;DHT22;1666;48.898;9.182;2022-12-18T06:28:26;-8.60;9.70
3308;DHT22;1666;48.898;9.182;2022-12-18T06:30:59;-8.60;9.80
3308;DHT22;1666;48.898;9.182;2022-12-18T06:33:29;-8.60;9.80
3308;DHT22;1666;48.898;9.182;2022-12-18T06:36:00;-8.60;9.80
3308;DHT22;1666;48.898;9.182;2022-12-18T06:38:31;-8.60;9.80
3308;DHT22;1666;48.898;9.182;2022-12-18T06:41:06;-8.70;9.60
3308;DHT22;1666;48.898;9.182;2022-12-18T06:43:36;-8.70;9.90
3308;DHT22;1666;48.898;9.182;2022-12-18T06:46:10;-8.60;9.90
3308;DHT22;1666;48.898;9.182;2022-12-18T06:48:40;-8.70;9.50
3308;DHT22;1666;48.898;9.182;2022-12-18T06:51:10;-8.60;10.00
3308;DHT22;1666;48.898;9.182;2022-12-18T06:53:40;-8.60;9.20
3308;DHT22;1666;48.898;9.182;2022-12-18T06:56:10;-8.60;8.50
3308;DHT22;1666;48.898;9.182;2022-12-18T06:58:40;-8.60;8.70
3308;DHT22;1666;48.898;9.182;2022-12-18T07:01:13;-8.60;8.30
3308;DHT22;1666;48.898;9.182;2022-12-18T07:03:43;-8.60;8.10
3308;DHT22;1666;48.898;9.182;2022-12-18T07:06:14;-8.70;7.80
3308;DHT22;1666;48.898;9.182;2022-12-18T07:08:44;-8.60;8.80
3308;DHT22;1666;48.898;9.182;2022-12-18T07:11:15;-8.60;8.20
3308;DHT22;1666;48.898;9.182;2022-12-18T07:13:46;-8.50;8.10
3308;DHT22;1666;48.898;9.182;2022-12-18T07:16:20;-8.60;7.50
3308;DHT22;1666;48.898;9.182;2022-12-18T07:18:52;-8.60;7.70
3308;DHT22;1666;48.898;9.182;2022-12-18T07:21:23;-8.60;7.40
3308;DHT22;1666;48.898;9.182;2022-12-18T07:23:53;-8.60;7.50
3308;DHT22;1666;48.898;9.182;2022-12-18T07:26:23;-8.60;7.50
3308;DHT22;1666;48.898;9.182;2022-12-18T07:28:58;-8.60;7.10
3308;DHT22;1666;48.898;9.182;2022-12-18T07:31:30;-8.50;7.10
3308;DHT22;1666;48.898;9.182;2022-12-18T07:34:00;-8.50;7.40
3308;DHT22;1666;48.898;9.182;2022-12-18T07:36:30;-8.40;7.60
3308;DHT22;1666;48.898;9.182;2022-12-18T07:39:00;-8.30;7.60
3308;DHT22;1666;48.898;9.182;2022-12-18T07:41:30;-8.20;7.80
3308;DHT22;1666;48.898;9.182;2022-12-18T07:44:00;-8.20;7.00
3308;DHT22;1666;48.898;9.182;2022-12-18T07:46:32;-8.20;7.10
3308;DHT22;1666;48.898;9.182;2022-12-18T07:49:02;-8.20;6.10
3308;DHT22;1666;48.898;9.182;2022-12-18T07:51:32;-8.10;6.60
3308;DHT22;1666;48.898;9.182;2022-12-18T07:54:02;-8.10;5.80
3308;DHT22;1666;48.898;9.182;2022-12-18T07:56:32;-8.00;7.00
3308;DHT22;1666;48.898;9.182;2022-12-18T07:59:02;-7.90;6.30
3308;DHT22;1666;48.898;9.182;2022-12-18T08:01:34;-7.90;5.60
3308;DHT22;1666;48.898;9.182;2022-12-18T08:04:04;-7.80;6.10
3308;DHT22;1666;48.898;9.182;2022-12-18T08:06:34;-7.80;5.20
3308;DHT22;1666;48.898;9.182;2022-12-18T08:09:04;-7.70;5.00
3308;DHT22;1666;48.898;9.182;2022-12-18T08:11:35;-7.80;4.00
3308;DHT22;1666;48.898;9.182;2022-12-18T08:14:05;-7.70;4.50
3308;DHT22;1666;48.898;9.182;2022-12-18T08:16:38;-7.80;3.00
3308;DHT22;1666;48.898;9.182;2022-12-18T08:19:11;-7.70;4.20
3308;DHT22;1666;48.898;9.182;2022-12-18T08:21:41;-7.70;4.00
3308;DHT22;1666;48.898;9.182;2022-12-18T08:24:10;-7.70;3.30
3308;DHT22;1666;48.898;9.182;2022-12-18T08:26:40;-7.70;3.20
3308;DHT22;1666;48.898;9.182;2022-12-18T08:29:30;-7.50;3.70
3308;DHT22;1666;48.898;9.182;2022-12-18T08:32:03;-7.40;2.80
3308;DHT22;1666;48.898;9.182;2022-12-18T08:34:33;-7.40;2.50
3308;DHT22;1666;48.898;9.182;2022-12-18T08:37:03;-7.40;1.10
3308;DHT22;1666;48.898;9.182;2022-12-18T08:39:33;-7.20;1.20
3308;DHT22;1666;48.898;9.182;2022-12-18T08:42:03;-7.30;1.20
3308;DHT22;1666;48.898;9.182;2022-12-18T08:44:46;-7.20;1.00
3308;DHT22;1666;48.898;9.182;2022-12-18T08:47:18;-7.10;1.30
3308;DHT22;1666;48.898;9.182;2022-12-18T08:49:48;-7.10;1.00
3308;DHT22;1666;48.898;9.182;2022-12-18T08:52:18;-7.00;1.00
3308;DHT22;1666;48.898;9.182;2022-12-18T08:54:48;-7.00;1.00
3308;DHT22;1666;48.898;9.182;2022-12-18T08:57:18;-6.90;1.00
3308;DHT22;1666;48.898;9.182;2022-12-18T08:59:48;-6.70;1.00
3308;DHT22;1666;48.898;9.182;2022-12-18T09:02:21;-6.60;1.00
3308;DHT22;1666;48.898;9.182;2022-12-18T09:04:51;-6.60;1.00
3308;DHT22;1666;48.898;9.182;2022-12-18T09:07:23;-6.60;1.00
3308;DHT22;1666;48.898;9.182;2022-12-18T09:09:53;-6.60;1.00
3308;DHT22;1666;48.898;9.182;2022-12-18T09:12:23;-6.60;1.00
3308;DHT22;1666;48.898;9.182;2022-12-18T09:14:53;-6.40;1.00
3308;DHT22;1666;48.898;9.182;2022-12-18T09:17:25;-6.40;1.00
3308;DHT22;1666;48.898;9.182;2022-12-18T09:19:55;-6.50;1.00
3308;DHT22;1666;48.898;9.182;2022-12-18T09:22:25;-6.40;1.00
3308;DHT22;1666;48.898;9.182;2022-12-18T09:24:55;-6.20;1.10
3308;DHT22;1666;48.898;9.182;2022-12-18T09:27:25;-6.10;1.00
3308;DHT22;1666;48.898;9.182;2022-12-18T09:29:55;-6.20;1.00
3308;DHT22;1666;48.898;9.182;2022-12-18T09:32:27;-6.00;1.00
3308;DHT22;1666;48.898;9.182;2022-12-18T09:34:57;-6.10;1.00
3308;DHT22;1666;48.898;9.182;2022-12-18T09:37:28;-6.00;1.00
3308;DHT22;1666;48.898;9.182;2022-12-18T09:39:58;-5.90;1.00
3308;DHT22;1666;48.898;9.182;2022-12-18T09:42:28;-5.80;1.00
3308;DHT22;1666;48.898;9.182;2022-12-18T09:44:58;-5.70;1.00
3308;DHT22;1666;48.898;9.182;2022-12-18T09:47:34;-5.70;1.00
3308;DHT22;1666;48.898;9.182;2022-12-18T09:50:21;-5.70;1.00
3308;DHT22;1666;48.898;9.182;2022-12-18T09:52:55;-5.60;1.00
3308;DHT22;1666;48.898;9.182;2022-12-18T09:55:30;-5.50;1.00
3308;DHT22;1666;48.898;9.182;2022-12-18T09:58:10;-5.60;1.00
3308;DHT22;1666;48.898;9.182;2022-12-18T10:00:42;-5.40;1.00
3308;DHT22;1666;48.898;9.182;2022-12-18T10:03:15;-5.40;1.00
3308;DHT22;1666;48.898;9.182;2022-12-18T10:05:56;-5.20;1.00
3308;DHT22;1666;48.898;9.182;2022-12-18T10:08:36;-5.10;1.00
3308;DHT22;1666;48.898;9.182;2022-12-18T10:11:24;-5.00;1.00
3308;DHT22;1666;48.898;9.182;2022-12-18T10:14:03;-4.90;1.00
3308;DHT22;1666;48.898;9.182;2022-12-18T10:16:43;-4.80;1.00
3308;DHT22;1666;48.898;9.182;2022-12-18T10:19:29;-4.80;1.00
3308;DHT22;1666;48.898;9.182;2022-12-18T10:22:03;-4.60;1.00
3308;DHT22;1666;48.898;9.182;2022-12-18T10:24:42;-4.60;1.00
3308;DHT22;1666;48.898;9.182;2022-12-18T10:27:16;-4.40;1.00
3308;DHT22;1666;48.898;9.182;2022-12-18T10:29:46;-4.50;1.00
3308;DHT22;1666;48.898;9.182;2022-12-18T10:32:18;-4.50;1.00
3308;DHT22;1666;48.898;9.182;2022-12-18T10:34:53;-4.30;1.00
3308;DHT22;1666;48.898;9.182;2022-12-18T10:37:29;-4.20;1.00
3308;DHT22;1666;48.898;9.182;2022-12-18T10:40:12;-4.10;1.00
3308;DHT22;1666;48.898;9.182;2022-12-18T10:43:03;-4.00;1.00
3308;DHT22;1666;48.898;9.182;2022-12-18T10:45:33;-4.00;1.00
3308;DHT22;1666;48.898;9.182;2022-12-18T10:48:04;-3.90;1.00
3308;DHT22;1666;48.898;9.182;2022-12-18T10:50:37;-3.90;1.00
3308;DHT22;1666;48.898;9.182;2022-12-18T10:53:28;-3.80;1.00
3308;DHT22;1666;48.898;9.182;2022-12-18T10:56:00;-3.80;1.00
3308;DHT22;1666;48.898;9.182;2022-12-18T10:58:31;-3.60;1.00
3308;DHT22;1666;48.898;9.182;2022-12-18T11:01:10;-3.50;1.00
3308;DHT22;1666;48.898;9.182;2022-12-18T11:03:42;-3.60;1.00
3308;DHT22;1666;48.898;9.182;2022-12-18T11:06:16;-3.50;1.00
3308;DHT22;1666;48.898;9.182;2022-12-18T11:08:58;-3.30;1.00
3308;DHT22;1666;48.898;9.182;2022-12-18T11:11:35;-3.20;1.00
3308;DHT22;1666;48.898;9.182;2022-12-18T11:14:14;-3.20;1.00
3308;DHT22;1666;48.898;9.182;2022-12-18T11:16:47;-3.10;1.00
3308;DHT22;1666;48.898;9.182;2022-12-18T11:19:38;-3.00;1.00
3308;DHT22;1666;48.898;9.182;2022-12-18T11:22:21;-3.10;1.00
3308;DHT22;1666;48.898;9.182;2022-12-18T11:24:56;-2.90;1.00
3308;DHT22;1666;48.898;9.182;2022-12-18T11:27:51;-2.90;1.00
3308;DHT22;1666;48.898;9.182;2022-12-18T11:30:27;-2.90;1.00
3308;DHT22;1666;48.898;9.182;2022-12-18T11:33:03;-2.70;1.00
3308;DHT22;1666;48.898;9.182;2022-12-18T11:35:39;-2.70;1.00
3308;DHT22;1666;48.898;9.182;2022-12-18T11:38:23;-2.60;1.00
3308;DHT22;1666;48.898;9.182;2022-12-18T11:40:58;-2.50;1.00
3308;DHT22;1666;48.898;9.182;2022-12-18T11:43:31;-2.50;1.00
3308;DHT22;1666;48.898;9.182;2022-12-18T11:46:05;-2.40;1.00
3308;DHT22;1666;48.898;9.182;2022-12-18T11:48:48;-2.70;1.00
3308;DHT22;1666;48.898;9.182;2022-12-18T11:51:25;-2.40;1.00
3308;DHT22;1666;48.898;9.182;2022-12-18T11:54:00;-2.20;1.00
3308;DHT22;1666;48.898;9.182;2022-12-18T11:56:35;-2.20;1.00
3308;DHT22;1666;48.898;9.182;2022-12-18T11:59:11;-2.00;1.00
3308;DHT22;1666;48.898;9.182;2022-12-18T12:01:50;-1.90;1.00
3308;DHT22;1666;48.898;9.182;2022-12-18T12:07:21;-2.00;1.00
3308;DHT22;1666;48.898;9.182;2022-12-18T12:10:02;-2.10;1.00
3308;DHT22;1666;48.898;9.182;2022-12-18T12:12:41;-2.00;1.00
3308;DHT22;1666;48.898;9.182;2022-12-18T12:15:27;-1.90;1.00
3308;DHT22;1666;48.898;9.182;2022-12-18T12:18:04;-1.90;1.00
3308;DHT22;1666;48.898;9.182;2022-12-18T12:20:45;-1.90;1.00
3308;DHT22;1666;48.898;9.182;2022-12-18T12:23:26;-1.90;1.00
3308;DHT22;1666;48.898;9.182;2022-12-18T12:26:06;-1.80;1.00
3308;DHT22;1666;48.898;9.182;2022-12-18T12:28:49;-1.70;1.00
3308;DHT22;1666;48.898;9.182;2022-12-18T12:31:29;-1.80;1.00
3308;DHT22;1666;48.898;9.182;2022-12-18T12:34:10;-1.80;1.00
3308;DHT22;1666;48.898;9.182;2022-12-18T12:39:39;-1.70;1.00
3308;DHT22;1666;48.898;9.182;2022-12-18T12:42:20;-1.50;1.00
3308;DHT22;1666;48.898;9.182;2022-12-18T12:45:06;-1.70;1.00
3308;DHT22;1666;48.898;9.182;2022-12-18T12:47:44;-1.60;1.00
3308;DHT22;1666;48.898;9.182;2022-12-18T12:50:18;-1.50;1.00
3308;DHT22;1666;48.898;9.182;2022-12-18T12:52:51;-1.50;1.00
3308;DHT22;1666;48.898;9.182;2022-12-18T12:55:24;-1.40;1.00
3308;DHT22;1666;48.898;9.182;2022-12-18T12:58:06;-1.30;1.00
3308;DHT22;1666;48.898;9.182;2022-12-18T13:00:41;-1.20;1.00
3308;DHT22;1666;48.898;9.182;2022-12-18T13:03:29;-1.30;1.00
3308;DHT22;1666;48.898;9.182;2022-12-18T13:06:07;-1.20;1.00
3308;DHT22;1666;48.898;9.182;2022-12-18T13:08:53;-1.20;1.00
3308;DHT22;1666;48.898;9.182;2022-12-18T13:11:35;-1.30;1.00
3308;DHT22;1666;48.898;9.182;2022-12-18T13:14:30;-1.20;1.00
3308;DHT22;1666;48.898;9.182;2022-12-18T13:17:24;-1.30;1.00
3308;DHT22;1666;48.898;9.182;2022-12-18T13:20:10;-1.20;1.00
3308;DHT22;1666;48.898;9.182;2022-12-18T13:22:45;-1.20;1.00
3308;DHT22;1666;48.898;9.182;2022-12-18T13:25:29;-1.20;1.00
3308;DHT22;1666;48.898;9.182;2022-12-18T13:28:11;-1.10;1.00
3308;DHT22;1666;48.898;9.182;2022-12-18T13:30:59;-1.10;1.00
3308;DHT22;1666;48.898;9.182;2022-12-18T13:33:43;-1.10;1.00
3308;DHT22;1666;48.898;9.182;2022-12-18T13:36:34;-1.20;1.00
3308;DHT22;1666;48.898;9.182;2022-12-18T13:39:31;-1.10;1.00
3308;DHT22;1666;48.898;9.182;2022-12-18T13:45:40;-1.30;1.00
3308;DHT22;1666;48.898;9.182;2022-12-18T13:48:22;-1.20;1.00
3308;DHT22;1666;48.898;9.182;2022-12-18T13:51:01;-1.20;1.00
3308;DHT22;1666;48.898;9.182;2022-12-18T13:53:39;-1.30;1.00
3308;DHT22;1666;48.898;9.182;2022-12-18T13:56:16;-1.30;1.00
3308;DHT22;1666;48.898;9.182;2022-12-18T13:59:09;-1.30;1.00
3308;DHT22;1666;48.898;9.182;2022-12-18T14:01:45;-1.30;1.00
3308;DHT22;1666;48.898;9.182;2022-12-18T14:04:26;-1.50;1.00
3308;DHT22;1666;48.898;9.182;2022-12-18T14:06:58;-1.50;1.00
3308;DHT22;1666;48.898;9.182;2022-12-18T14:09:33;-1.50;1.00
3308;DHT22;1666;48.898;9.182;2022-12-18T14:12:06;-1.50;1.00
3308;DHT22;1666;48.898;9.182;2022-12-18T14:14:55;-1.50;1.00
3308;DHT22;1666;48.898;9.182;2022-12-18T14:17:25;-1.60;1.00
3308;DHT22;1666;48.898;9.182;2022-12-18T14:20:00;-1.60;1.00
3308;DHT22;1666;48.898;9.182;2022-12-18T14:22:30;-1.60;1.00
3308;DHT22;1666;48.898;9.182;2022-12-18T14:25:17;-1.70;1.00
3308;DHT22;1666;48.898;9.182;2022-12-18T14:27:49;-1.70;1.00
3308;DHT22;1666;48.898;9.182;2022-12-18T14:30:27;-1.80;1.00
3308;DHT22;1666;48.898;9.182;2022-12-18T14:33:02;-1.80;1.00
3308;DHT22;1666;48.898;9.182;2022-12-18T14:35:36;-1.80;1.00
3308;DHT22;1666;48.898;9.182;2022-12-18T14:38:21;-1.90;1.00
3308;DHT22;1666;48.898;9.182;2022-12-18T14:40:52;-1.90;1.00
3308;DHT22;1666;48.898;9.182;2022-12-18T14:43:23;-1.90;1.00
3308;DHT22;1666;48.898;9.182;2022-12-18T14:45:53;-2.00;1.00
3308;DHT22;1666;48.898;9.182;2022-12-18T14:48:36;-2.00;1.00
3308;DHT22;1666;48.898;9.182;2022-12-18T14:51:16;-2.00;1.00
3308;DHT22;1666;48.898;9.182;2022-12-18T14:53:47;-2.10;1.00
3308;DHT22;1666;48.898;9.182;2022-12-18T14:56:22;-2.10;1.00
3308;DHT22;1666;48.898;9.182;2022-12-18T14:58:54;-2.20;1.00
3308;DHT22;1666;48.898;9.182;2022-12-18T15:01:27;-2.30;1.00
3308;DHT22;1666;48.898;9.182;2022-12-18T15:03:59;-2.30;1.00
3308;DHT22;1666;48.898;9.182;2022-12-18T15:06:35;-2.30;1.00
3308;DHT22;1666;48.898;9.182;2022-12-18T15:09:22;-2.40;1.00
3308;DHT22;1666;48.898;9.182;2022-12-18T15:11:55;-2.40;1.00
3308;DHT22;1666;48.898;9.182;2022-12-18T15:14:34;-2.50;1.00
3308;DHT22;1666;48.898;9.182;2022-12-18T15:17:12;-2.60;1.00
3308;DHT22;1666;48.898;9.182;2022-12-18T15:19:44;-2.60;1.00
3308;DHT22;1666;48.898;9.182;2022-12-18T15:22:22;-2.60;1.00
3308;DHT22;1666;48.898;9.182;2022-12-18T15:24:55;-2.60;1.00
3308;DHT22;1666;48.898;9.182;2022-12-18T15:27:32;-2.70;1.00
3308;DHT22;1666;48.898;9.182;2022-12-18T15:30:22;-2.80;1.00
3308;DHT22;1666;48.898;9.182;2022-12-18T15:32:52;-2.70;1.00
3308;DHT22;1666;48.898;9.182;2022-12-18T15:35:42;-2.70;1.00
3308;DHT22;1666;48.898;9.182;2022-12-18T15:38:15;-2.60;1.00
3308;DHT22;1666;48.898;9.182;2022-12-18T15:40:45;-2.70;1.00
3308;DHT22;1666;48.898;9.182;2022-12-18T15:43:15;-2.70;1.00
3308;DHT22;1666;48.898;9.182;2022-12-18T15:45:57;-2.90;1.00
3308;DHT22;1666;48.898;9.182;2022-12-18T15:48:27;-2.90;1.10
3308;DHT22;1666;48.898;9.182;2022-12-18T15:50:57;-2.90;1.60
3308;DHT22;1666;48.898;9.182;2022-12-18T15:53:32;-3.00;1.80
3308;DHT22;1666;48.898;9.182;2022-12-18T15:56:04;-3.00;2.70
3308;DHT22;1666;48.898;9.182;2022-12-18T15:58:50;-2.90;3.30
3308;DHT22;1666;48.898;9.182;2022-12-18T16:01:21;-2.90;2.40
3308;DHT22;1666;48.898;9.182;2022-12-18T16:03:52;-2.90;2.30
3308;DHT22;1666;48.898;9.182;2022-12-18T16:06:23;-2.90;2.40
3308;DHT22;1666;48.898;9.182;2022-12-18T16:09:04;-3.00;2.70
3308;DHT22;1666;48.898;9.182;2022-12-18T16:11:36;-3.00;3.90
3308;DHT22;1666;48.898;9.182;2022-12-18T16:14:16;-3.00;3.80
3308;DHT22;1666;48.898;9.182;2022-12-18T16:16:48;-3.00;3.90
3308;DHT22;1666;48.898;9.182;2022-12-18T16:19:18;-3.00;3.90
3308;DHT22;1666;48.898;9.182;2022-12-18T16:21:51;-3.00;3.90
3308;DHT22;1666;48.898;9.182;2022-12-18T16:24:26;-3.00;4.60
3308;DHT22;1666;48.898;9.182;2022-12-18T16:26:57;-3.00;4.80
3308;DHT22;1666;48.898;9.182;2022-12-18T16:29:28;-2.90;4.80
3308;DHT22;1666;48.898;9.182;2022-12-18T16:31:59;-3.00;5.10
3308;DHT22;1666;48.898;9.182;2022-12-18T16:34:30;-3.00;5.00
3308;DHT22;1666;48.898;9.182;2022-12-18T16:37:04;-3.00;5.20
3308;DHT22;1666;48.898;9.182;2022-12-18T16:39:37;-3.00;5.90
3308;DHT22;1666;48.898;9.182;2022-12-18T16:42:11;-3.10;6.20
3308;DHT22;1666;48.898;9.182;2022-12-18T16:44:44;-3.00;6.30
3308;DHT22;1666;48.898;9.182;2022-12-18T16:47:14;-3.00;6.30
3308;DHT22;1666;48.898;9.182;2022-12-18T16:49:44;-3.00;6.30
3308;DHT22;1666;48.898;9.182;2022-12-18T16:52:17;-3.00;6.00
3308;DHT22;1666;48.898;9.182;2022-12-18T16:54:50;-3.00;5.80
3308;DHT22;1666;48.898;9.182;2022-12-18T16:57:20;-3.00;5.60
3308;DHT22;1666;48.898;9.182;2022-12-18T16:59:51;-3.00;5.40
3308;DHT22;1666;48.898;9.182;2022-12-18T17:02:28;-3.00;5.30
3308;DHT22;1666;48.898;9.182;2022-12-18T17:04:59;-3.00;5.80
3308;DHT22;1666;48.898;9.182;2022-12-18T17:07:29;-3.00;5.10